Time;durP1;ratioP1;P1;durP2;ratioP2;P2;SDS_P1;SDS_P2;PMS_P1;PMS_P2;Temp;Humidity;BMP_temperature;BMP_pressure;BME280_temperature;BME280_humidity;BME280_pressure;Samples;Min_cycle;Max_cycle;Signal;HPM_P1;HPM_P2
2024/03/24 00:01:26;;;;;;;;;;;;;;;5.05;100.00;100757.28;5009049;28;20016;-70
2024/03/24 00:03:52;;;;;;;;;;;;;;;4.94;100.00;100752.28;5013522;28;19913;-69
2024/03/24 00:06:17;;;;;;;;;;;;;;;5.03;100.00;100751.28;5010792;28;19918;-70
2024/03/24 00:08:43;;;;;;;;;;;;;;;4.98;100.00;100758.97;5006911;28;19975;-69
2024/03/24 00:11:08;;;;;;;;;;;;;;;4.98;100.00;100743.84;5010702;28;20310;-69
2024/03/24 00:13:33;;;;;;;;;;;;;;;5.13;100.00;100733.38;5007562;28;19926;-70
2024/03/24 00:15:59;;;;;;;;;;;;;;;5.07;100.00;100744.66;5006233;28;19956;-69
2024/03/24 00:18:24;;;;;;;;;;;;;;;5.06;100.00;100735.00;5006006;28;19921;-69
2024/03/24 00:20:49;;;;;;;;;;;;;;;5.14;100.00;100732.38;5008450;28;19929;-69
2024/03/24 00:23:15;;;;;;;;;;;;;;;5.08;100.00;100729.53;5006053;28;20378;-69
2024/03/24 00:25:43;;;;;;;;;;;;;;;5.16;100.00;100729.56;5009980;28;19931;-69
2024/03/24 00:28:08;;;;;;;;;;;;;;;5.23;100.00;100727.88;5008141;28;20111;-69
2024/03/24 00:30:34;;;;;;;;;;;;;;;5.10;100.00;100746.19;5008583;28;19985;-72
2024/03/24 00:33:08;;;;;;;;;;;;;;;5.12;100.00;100736.19;5008587;28;20003;-69
2024/03/24 00:35:33;;;;;;;;;;;;;;;5.09;100.00;100749.81;5010182;28;20333;-69
2024/03/24 00:37:59;;;;;;;;;;;;;;;5.17;100.00;100710.75;5008183;28;20099;-69
2024/03/24 00:40:25;;;;;;;;;;;;;;;5.08;100.00;100703.78;5023261;28;20000;-69
2024/03/24 00:42:51;;;;;;;;;;;;;;;4.96;100.00;100700.63;5008792;28;19918;-69
2024/03/24 00:45:16;;;;;;;;;;;;;;;5.06;100.00;100678.38;5009240;28;19975;-69
2024/03/24 00:47:41;;;;;;;;;;;;;;;5.16;100.00;100671.88;5000211;28;20766;-70
2024/03/24 00:50:09;;;;;;;;;;;;;;;5.17;100.00;100654.09;5009278;28;19981;-69
2024/03/24 00:52:34;;;;;;;;;;;;;;;5.10;100.00;100640.66;5007011;28;19928;-69
2024/03/24 00:55:00;;;;;;;;;;;;;;;5.18;100.00;100637.16;5007496;28;19921;-69
2024/03/24 00:57:25;;;;;;;;;;;;;;;5.10;100.00;100619.38;5009696;28;20096;-70
2024/03/24 00:59:51;;;;;;;;;;;;;;;5.06;100.00;100619.88;5006093;28;19956;-69
2024/03/24 01:02:16;;;;;;;;;;;;;;;5.09;100.00;100592.94;5014054;28;19929;-69
2024/03/24 01:04:42;;;;;;;;;;;;;;;5.07;100.00;100589.66;5013515;28;19972;-70
2024/03/24 01:07:07;;;;;;;;;;;;;;;5.13;100.00;100581.00;5010736;28;20374;-69
2024/03/24 01:09:33;;;;;;;;;;;;;;;4.97;100.00;100572.03;5006747;28;20025;-70
2024/03/24 01:11:58;;;;;;;;;;;;;;;5.18;100.00;100538.78;5009713;28;20383;-69
2024/03/24 01:14:24;;;;;;;;;;;;;;;5.11;100.00;100556.41;5026860;28;19955;-69
2024/03/24 01:16:52;;;;;;;;;;;;;;;5.10;100.00;100531.66;5014270;28;19960;-69
2024/03/24 01:19:18;;;;;;;;;;;;;;;4.98;100.00;100539.16;5010330;28;19921;-70
2024/03/24 01:21:43;;;;;;;;;;;;;;;5.10;100.00;100529.00;5009419;28;20008;-70
2024/03/24 01:24:09;;;;;;;;;;;;;;;4.99;100.00;100547.97;5013754;28;19917;-70
2024/03/24 01:26:34;;;;;;;;;;;;;;;5.17;100.00;100526.47;5010686;28;19953;-70
2024/03/24 01:29:00;;;;;;;;;;;;;;;5.21;100.00;100541.09;5010231;28;19930;-70
2024/03/24 01:31:25;;;;;;;;;;;;;;;5.20;100.00;100503.03;5010843;28;19945;-70
2024/03/24 01:33:51;;;;;;;;;;;;;;;5.00;100.00;100512.41;5011692;28;19975;-70
2024/03/24 01:36:19;;;;;;;;;;;;;;;5.08;100.00;100491.09;5008462;28;19921;-71
2024/03/24 01:38:45;;;;;;;;;;;;;;;5.10;100.00;100502.41;5009557;28;19925;-69
2024/03/24 01:41:10;;;;;;;;;;;;;;;5.09;100.00;100494.59;5030042;28;19917;-69
2024/03/24 01:43:35;;;;;;;;;;;;;;;4.95;100.00;100478.38;5009998;28;19956;-70
2024/03/24 01:46:08;;;;;;;;;;;;;;;5.06;100.00;100465.69;5014130;28;19921;-70
2024/03/24 01:48:34;;;;;;;;;;;;;;;5.15;100.00;100467.31;5005554;28;19932;-69
2024/03/24 01:51:00;;;;;;;;;;;;;;;4.97;100.00;100478.19;5029491;23;19986;-69
2024/03/24 01:53:26;;;;;;;;;;;;;;;5.09;100.00;100479.50;5030339;28;19979;-69
2024/03/24 01:55:51;;;;;;;;;;;;;;;5.01;100.00;100468.88;5027759;28;19921;-69
2024/03/24 01:58:16;;;;;;;;;;;;;;;5.11;100.00;100464.19;5025813;28;19920;-69
2024/03/24 02:00:42;;;;;;;;;;;;;;;5.10;100.00;100465.19;5024638;28;20302;-69
2024/03/24 02:03:07;;;;;;;;;;;;;;;5.10;100.00;100453.72;5024280;28;19925;-69
2024/03/24 02:05:32;;;;;;;;;;;;;;;4.96;100.00;100449.94;5031926;28;19927;-69
2024/03/24 02:07:57;;;;;;;;;;;;;;;4.91;100.00;100444.31;5028094;28;19972;-69
2024/03/24 02:10:23;;;;;;;;;;;;;;;4.85;100.00;100440.50;5021413;28;19995;-69
2024/03/24 02:12:49;;;;;;;;;;;;;;;4.84;100.00;100419.44;5026540;28;19917;-69
2024/03/24 02:15:14;;;;;;;;;;;;;;;4.91;100.00;100413.25;5029142;28;19959;-68
2024/03/24 02:17:42;;;;;;;;;;;;;;;4.87;100.00;100411.13;5027363;28;19921;-68
2024/03/24 02:20:09;;;;;;;;;;;;;;;4.90;100.00;100402.81;5026091;28;20325;-68
2024/03/24 02:22:37;;;;;;;;;;;;;;;4.94;100.00;100401.44;5028784;28;19925;-69
2024/03/24 02:25:04;;;;;;;;;;;;;;;5.16;100.00;100389.22;5036278;28;19925;-69
2024/03/24 02:27:29;;;;;;;;;;;;;;;5.12;100.00;100402.03;5026716;28;19963;-69
2024/03/24 02:29:54;;;;;;;;;;;;;;;5.23;100.00;100398.16;5026441;28;20339;-69
2024/03/24 02:32:20;;;;;;;;;;;;;;;5.16;100.00;100392.72;5019917;28;19918;-69
2024/03/24 02:34:45;;;;;;;;;;;;;;;5.16;100.00;100379.41;5019646;28;20374;-69
2024/03/24 02:37:10;;;;;;;;;;;;;;;5.07;100.00;100380.47;5027815;28;20436;-69
2024/03/24 02:39:36;;;;;;;;;;;;;;;5.06;100.00;100391.25;5023971;28;19921;-69
2024/03/24 02:42:01;;;;;;;;;;;;;;;5.11;100.00;100371.13;5021111;28;20287;-68
2024/03/24 02:44:27;;;;;;;;;;;;;;;4.94;100.00;100374.88;5026325;28;19921;-69
2024/03/24 02:46:52;;;;;;;;;;;;;;;4.96;100.00;100363.06;5025168;28;19927;-69
2024/03/24 02:49:18;;;;;;;;;;;;;;;5.08;100.00;100374.13;5025843;28;20344;-70
2024/03/24 02:51:43;;;;;;;;;;;;;;;4.97;100.00;100362.06;5030918;28;19958;-69
2024/03/24 02:54:08;;;;;;;;;;;;;;;5.09;100.00;100375.81;5027266;28;19924;-69
2024/03/24 02:56:34;;;;;;;;;;;;;;;5.09;100.00;100366.97;5022533;28;19970;-69
2024/03/24 02:58:59;;;;;;;;;;;;;;;5.10;100.00;100371.31;5016390;28;19924;-69
2024/03/24 03:01:24;;;;;;;;;;;;;;;5.18;100.00;100369.44;5024129;28;19996;-69
2024/03/24 03:03:49;;;;;;;;;;;;;;;5.23;100.00;100360.91;5024889;28;19925;-69
2024/03/24 03:06:15;;;;;;;;;;;;;;;5.27;100.00;100353.44;5024399;28;19925;-69
2024/03/24 03:08:40;;;;;;;;;;;;;;;4.96;100.00;100346.28;5020532;28;19968;-69
2024/03/24 03:11:06;;;;;;;;;;;;;;;5.26;100.00;100338.47;5026793;28;19975;-69
2024/03/24 03:13:31;;;;;;;;;;;;;;;5.03;100.00;100349.91;5037886;28;19952;-69
2024/03/24 03:15:56;;;;;;;;;;;;;;;4.96;100.00;100355.09;5023553;28;19939;-69
2024/03/24 03:18:22;;;;;;;;;;;;;;;4.87;100.00;100340.19;5025029;28;19940;-68
2024/03/24 03:20:48;;;;;;;;;;;;;;;4.88;100.00;100335.69;5022201;28;19921;-69
2024/03/24 03:23:13;;;;;;;;;;;;;;;4.86;100.00;100340.34;5023237;28;20452;-68
2024/03/24 03:25:39;;;;;;;;;;;;;;;5.08;100.00;100339.56;5034135;28;19917;-69
2024/03/24 03:28:04;;;;;;;;;;;;;;;5.02;100.00;100344.78;5022405;28;20870;-69
2024/03/24 03:30:30;;;;;;;;;;;;;;;5.17;100.00;100335.84;5025431;28;19931;-69
2024/03/24 03:32:55;;;;;;;;;;;;;;;5.04;100.00;100343.59;5023199;28;20298;-69
2024/03/24 03:35:20;;;;;;;;;;;;;;;5.19;100.00;100339.19;5026800;28;19917;-68
2024/03/24 03:37:45;;;;;;;;;;;;;;;5.32;100.00;100327.97;5025284;28;19951;-69
2024/03/24 03:40:11;;;;;;;;;;;;;;;5.42;100.00;100325.06;5025635;28;19925;-70
2024/03/24 03:42:36;;;;;;;;;;;;;;;5.46;100.00;100318.38;5025506;28;19960;-69
2024/03/24 03:45:02;;;;;;;;;;;;;;;5.43;100.00;100335.50;5025204;28;19925;-69
2024/03/24 03:47:27;;;;;;;;;;;;;;;5.40;100.00;100333.22;5026853;28;19921;-70
2024/03/24 03:49:53;;;;;;;;;;;;;;;5.48;100.00;100329.69;5027592;28;19942;-70
2024/03/24 03:52:25;;;;;;;;;;;;;;;5.48;100.00;100323.53;5022286;28;20612;-70
2024/03/24 03:54:51;;;;;;;;;;;;;;;5.44;100.00;100323.91;5026399;28;19917;-70
2024/03/24 03:57:17;;;;;;;;;;;;;;;5.41;100.00;100328.75;5025181;28;20541;-69
2024/03/24 03:59:42;;;;;;;;;;;;;;;5.51;100.00;100329.31;5026988;28;19960;-69
2024/03/24 04:02:07;;;;;;;;;;;;;;;5.48;100.00;100336.84;5023637;28;19914;-69
2024/03/24 04:04:33;;;;;;;;;;;;;;;5.47;100.00;100337.81;5026279;28;20043;-69
2024/03/24 04:06:58;;;;;;;;;;;;;;;5.40;100.00;100340.38;5023906;28;20314;-69
2024/03/24 04:09:23;;;;;;;8.50;1.80;;;;;;;5.38;100.00;100299.81;5022239;28;20465;-70
2024/03/24 04:11:49;;;;;;;6.30;1.40;;;;;;;5.48;100.00;100348.28;5021464;28;20232;-69
2024/03/24 04:14:15;;;;;;;4.97;1.27;;;;;;;4.84;100.00;100244.06;5026072;28;20242;-69
2024/03/24 04:16:41;;;;;;;7.83;1.47;;;;;;;4.63;100.00;100210.13;5023066;28;20192;-70
2024/03/24 04:19:08;;;;;;;5.27;1.70;;;;;;;5.41;100.00;100336.72;5016980;28;21231;-69
2024/03/24 04:21:34;;;;;;;6.20;1.70;;;;;;;5.13;100.00;100272.59;5021177;28;20475;-70
2024/03/24 04:23:59;;;;;;;9.70;1.83;;;;;;;5.43;100.00;100338.19;5022317;28;20443;-69
2024/03/24 04:26:25;;;;;;;7.47;1.90;;;;;;;4.71;100.00;100196.78;5024829;28;20938;-70
2024/03/24 04:28:50;;;;;;;8.93;1.80;;;;;;;4.55;100.00;100173.00;5024220;28;20207;-69
2024/03/24 04:31:16;;;;;;;7.90;1.97;;;;;;;5.40;100.00;100311.94;5020665;28;20712;-69
2024/03/24 04:33:41;;;;;;;10.73;1.80;;;;;;;5.12;100.00;100247.84;5023234;28;22369;-69
2024/03/24 04:36:07;;;;;;;7.60;2.40;;;;;;;4.82;100.00;100215.00;5024351;28;20187;-70
2024/03/24 04:38:33;;;;;;;5.67;1.60;;;;;;;5.11;100.00;100232.06;5028614;28;20180;-69
2024/03/24 04:40:58;;;;;;;12.10;2.53;;;;;;;5.48;100.00;100284.47;5027160;28;20826;-69
2024/03/24 04:43:24;;;;;;;6.70;1.97;;;;;;;5.07;100.00;100206.84;5020727;28;20201;-70
2024/03/24 04:45:49;;;;;;;5.47;1.90;;;;;;;4.90;100.00;100206.97;5024097;28;20196;-69
2024/03/24 04:48:15;;;;;;;8.50;2.00;;;;;;;5.26;100.00;100274.66;5025671;28;20231;-70
2024/03/24 04:50:40;;;;;;;8.90;1.80;;;;;;;5.26;100.00;100243.56;5025820;28;20641;-69
2024/03/24 04:53:06;;;;;;;7.50;2.00;;;;;;;5.40;100.00;100280.03;5042258;28;20213;-70
2024/03/24 04:55:32;;;;;;;6.90;2.00;;;;;;;5.61;100.00;100298.00;5032578;28;20267;-69
2024/03/24 04:57:57;;;;;;;8.80;1.80;;;;;;;5.57;100.00;100299.34;5025150;28;20581;-69
2024/03/24 05:00:25;;;;;;;5.40;1.93;;;;;;;5.29;100.00;100247.72;5039749;28;20204;-69
2024/03/24 05:02:50;;;;;;;8.30;1.90;;;;;;;4.91;100.00;100191.84;5024763;28;20216;-69
2024/03/24 05:05:16;;;;;;;9.70;2.00;;;;;;;5.21;100.00;100240.63;5025468;28;20442;-69
2024/03/24 05:07:42;;;;;;;7.20;2.10;;;;;;;4.95;100.00;100225.88;5024943;28;20656;-70
2024/03/24 05:10:07;;;;;;;8.53;2.27;;;;;;;4.87;100.00;100191.38;5021345;28;20525;-69
2024/03/24 05:12:33;;;;;;;6.87;2.00;;;;;;;5.37;100.00;100298.16;5023917;28;20212;-70
2024/03/24 05:14:59;;;;;;;8.47;1.80;;;;;;;5.60;100.00;100304.28;5036739;28;20187;-70
2024/03/24 05:17:25;;;;;;;8.07;1.70;;;;;;;5.49;100.00;100277.28;5023928;28;20189;-69
2024/03/24 05:19:50;;;;;;;6.70;1.67;;;;;;;4.95;100.00;100191.31;5025167;28;20187;-69
2024/03/24 05:22:16;;;;;;;7.50;1.80;;;;;;;5.40;100.00;100274.69;5027927;28;20827;-69
2024/03/24 05:24:41;;;;;;;6.90;1.90;;;;;;;4.84;100.00;100191.72;5023029;28;20596;-69
2024/03/24 05:27:07;;;;;;;9.03;1.70;;;;;;;5.42;100.00;100282.50;5027509;28;20654;-69
2024/03/24 05:29:32;;;;;;;8.67;1.80;;;;;;;5.49;100.00;100295.91;5027051;28;20200;-69
2024/03/24 05:32:00;;;;;;;7.20;1.60;;;;;;;5.59;100.00;100302.66;5023175;28;20592;-69
2024/03/24 05:34:25;;;;;;;10.33;2.23;;;;;;;5.24;100.00;100277.50;5025954;28;20238;-69
2024/03/24 05:36:52;;;;;;;7.03;1.50;;;;;;;5.53;100.00;100303.38;5022533;28;20845;-69
2024/03/24 05:39:17;;;;;;;9.43;1.63;;;;;;;5.40;100.00;100276.53;5027066;28;20435;-69
2024/03/24 05:41:50;;;;;;;13.17;2.17;;;;;;;4.61;100.00;100170.47;5023496;28;20566;-69
2024/03/24 05:44:16;;;;;;;8.27;2.30;;;;;;;5.54;100.00;100317.50;5024559;28;20192;-70
2024/03/24 05:46:42;;;;;;;8.57;2.37;;;;;;;5.63;100.00;100319.91;5022695;28;20469;-69
2024/03/24 05:49:10;;;;;;;6.00;1.57;;;;;;;4.66;100.00;100189.38;5024427;28;20471;-69
2024/03/24 05:51:36;;;;;;;7.17;1.83;;;;;;;5.31;100.00;100277.63;5041169;28;20216;-69
2024/03/24 05:54:01;;;;;;;7.20;1.47;;;;;;;4.89;100.00;100223.06;5023838;28;20455;-69
2024/03/24 05:56:26;;;;;;;8.80;1.80;;;;;;;4.97;100.00;100245.09;5025854;28;20437;-70
2024/03/24 05:58:52;;;;;;;10.57;1.53;;;;;;;5.47;100.00;100340.47;5029930;28;20176;-69
2024/03/24 06:01:17;;;;;;;6.23;0.97;;;;;;;4.85;100.00;100259.81;5030266;28;20591;-69
2024/03/24 06:03:43;;;;;;;5.20;1.20;;;;;;;5.17;100.00;100317.25;5025070;28;20259;-70
2024/03/24 06:06:08;;;;;;;4.97;1.00;;;;;;;4.92;100.00;100337.03;5041239;28;20753;-70
2024/03/24 06:08:34;;;;;;;4.90;1.00;;;;;;;5.04;100.00;100369.34;5025939;28;20215;-70
2024/03/24 06:11:00;;;;;;;6.33;0.80;;;;;;;4.82;100.00;100377.09;5026221;28;20181;-71
2024/03/24 06:13:25;;;;;;;3.80;0.73;;;;;;;3.82;100.00;100260.75;5024035;28;20446;-71
2024/03/24 06:15:51;;;;;;;6.13;0.93;;;;;;;4.85;100.00;100390.03;5043169;28;20455;-71
2024/03/24 06:18:16;;;;;;;4.23;0.70;;;;;;;4.06;100.00;100256.38;5022711;28;20189;-72
2024/03/24 06:20:42;;;;;;;4.40;0.83;;;;;;;4.06;100.00;100243.91;5026617;28;20268;-71
2024/03/24 06:23:08;;;;;;;5.57;0.70;;;;;;;4.89;100.00;100374.56;5025510;28;20916;-72
2024/03/24 06:25:34;;;;;;;8.60;0.80;;;;;;;4.54;100.00;100350.13;5025459;28;20439;-71
2024/03/24 06:28:01;;;;;;;7.10;1.50;;;;;;;3.82;100.00;100244.81;5026957;28;20482;-71
2024/03/24 06:30:28;;;;;;;5.33;0.90;;;;;;;4.67;100.00;100355.72;5028719;28;20435;-71
2024/03/24 06:32:53;;;;;;;5.90;0.80;;;;;;;3.76;100.00;100213.69;5026202;28;20514;-71
2024/03/24 06:35:19;;;;;;;4.53;0.67;;;;;;;4.79;100.00;100358.00;5028715;28;20848;-71
2024/03/24 06:37:45;;;;;;;7.20;0.90;;;;;;;4.80;100.00;100370.28;5029707;28;20207;-71
2024/03/24 06:40:11;;;;;;;7.63;0.90;;;;;;;4.15;100.00;100265.13;5031021;28;20167;-71
2024/03/24 06:42:44;;;;;;;3.80;0.70;;;;;;;4.79;100.00;100368.63;5029456;28;20266;-71
2024/03/24 06:45:13;;;;;;;8.77;1.17;;;;;;;3.78;100.00;100256.75;5024434;28;20786;-71
2024/03/24 06:47:39;;;;;;;5.43;0.90;;;;;;;3.84;100.00;100192.41;5026650;28;20442;-71
2024/03/24 06:50:06;;;;;;;7.00;1.30;;;;;;;4.59;100.00;100305.28;5023727;28;21112;-72
2024/03/24 06:52:35;;;;;;;6.60;1.20;;;;;;;4.11;100.00;100232.81;5024557;28;20216;-71
2024/03/24 06:55:00;;;;;;;6.27;0.97;;;;;;;4.96;100.00;100352.44;5025850;28;20474;-71
2024/03/24 06:57:27;;;;;;;6.47;0.90;;;;;;;5.01;100.00;100353.75;5030333;28;20459;-71
2024/03/24 06:59:53;;;;;;;6.27;1.20;;;;;;;4.55;100.00;100266.81;5030840;28;20188;-71
2024/03/24 07:02:18;;;;;;;11.03;1.40;;;;;;;4.84;100.00;100326.44;5024167;28;20830;-71
2024/03/24 07:04:44;;;;;;;7.47;1.50;;;;;;;4.32;100.00;100220.78;5026402;28;20445;-71
2024/03/24 07:07:09;;;;;;;9.80;1.57;;;;;;;4.21;100.00;100192.78;5026453;28;20184;-71
2024/03/24 07:09:35;;;;;;;11.83;1.60;;;;;;;4.66;100.00;100271.72;5025114;28;20625;-71
2024/03/24 07:12:00;;;;;;;5.23;1.10;;;;;;;4.72;100.00;100243.63;5025454;28;20594;-71
2024/03/24 07:14:26;;;;;;;7.07;1.20;;;;;;;5.01;100.00;100274.03;5026715;28;20647;-70
2024/03/24 07:16:51;;;;;;;7.23;1.20;;;;;;;5.28;100.00;100296.59;5020760;28;20182;-71
2024/03/24 07:19:16;;;;;;;7.87;1.50;;;;;;;4.77;100.00;100204.06;5023732;28;20176;-71
2024/03/24 07:21:42;;;;;;;9.40;1.67;;;;;;;4.63;100.00;100220.75;5026415;28;20247;-70
2024/03/24 07:24:08;;;;;;;8.40;1.30;;;;;;;4.77;100.00;100222.66;5025653;28;20691;-71
2024/03/24 07:26:34;;;;;;;8.60;1.60;;;;;;;5.51;100.00;100318.69;5025408;28;20224;-70
2024/03/24 07:28:59;;;;;;;9.07;1.20;;;;;;;5.54;100.00;100312.19;5028319;28;20520;-71
2024/03/24 07:31:25;;;;;;;8.30;1.63;;;;;;;5.16;100.00;100243.00;5024741;28;20822;-71
2024/03/24 07:33:50;;;;;;;6.60;1.60;;;;;;;5.46;100.00;100283.81;5022590;28;20214;-70
2024/03/24 07:36:15;;;;;;;8.93;1.50;;;;;;;5.30;100.00;100283.94;5019038;28;20884;-71
2024/03/24 07:38:41;;;;;;;8.63;1.50;;;;;;;4.98;100.00;100203.44;5023630;28;20184;-71
2024/03/24 07:41:06;;;;;;;8.10;1.30;;;;;;;5.58;100.00;100278.88;5018844;28;20188;-71
2024/03/24 07:43:32;;;;;;;9.37;1.80;;;;;;;4.76;100.00;100166.03;5020970;28;20180;-71
2024/03/24 07:45:57;;;;;;;9.53;1.80;;;;;;;5.27;100.00;100209.84;5021659;28;20239;-71
2024/03/24 07:48:23;;;;;;;9.63;1.93;;;;;;;4.75;100.00;100147.63;5021087;28;20208;-71
2024/03/24 07:53:16;;;;;;;11.27;1.70;;;;;;;5.57;100.00;100267.41;5002582;28;20236;-72
2024/03/24 07:55:42;;;;;;;8.27;1.70;;;;;;;4.22;100.00;100046.63;5002913;28;20445;-73
2024/03/24 07:58:08;;;;;;;9.50;1.70;;;;;;;5.82;100.00;100310.59;5005976;28;20541;-72
2024/03/24 08:00:34;;;;;;;7.50;1.50;;;;;;;5.95;100.00;100303.84;5007088;28;20435;-72
2024/03/24 08:02:59;;;;;;;8.80;1.55;;;;;;;5.78;100.00;100241.94;5006578;28;20622;-72
2024/03/24 08:05:24;;;;;;;9.80;2.10;;;;;;;6.13;100.00;100298.16;5005985;28;20496;-71
2024/03/24 08:07:50;;;;;;;9.23;1.70;;;;;;;5.96;100.00;100265.56;5008538;28;20226;-72
2024/03/24 08:10:15;;;;;;;16.57;4.63;;;;;;;5.33;100.00;100158.59;5006003;28;20192;-72
2024/03/24 08:12:41;;;;;;;13.80;2.37;;;;;;;5.60;100.00;100181.09;4982978;28;20197;-72
2024/03/24 08:15:07;;;;;;;9.10;1.30;;;;;;;6.22;100.00;100289.94;4985701;28;20192;-72
2024/03/24 08:17:32;;;;;;;12.50;2.20;;;;;;;5.75;100.00;100226.34;5005285;28;20280;-72
2024/03/24 08:19:58;;;;;;;8.63;1.87;;;;;;;5.84;100.00;100243.88;5003307;28;20445;-72
2024/03/24 08:22:23;;;;;;;10.57;2.20;;;;;;;5.74;100.00;100208.72;4981659;28;20209;-72
2024/03/24 08:24:49;;;;;;;12.63;1.90;;;;;;;6.25;100.00;100310.00;4998826;28;20199;-72
2024/03/24 08:27:14;;;;;;;12.23;3.03;;;;;;;5.44;100.00;100172.28;5001405;28;20199;-72
2024/03/24 08:29:40;;;;;;;7.63;1.77;;;;;;;6.07;100.00;100324.50;4987499;28;20239;-71
2024/03/24 08:32:05;;;;;;;13.73;1.80;;;;;;;5.97;100.00;100278.72;5001540;28;20208;-72
2024/03/24 08:34:31;;;;;;;7.83;1.97;;;;;;;5.32;100.00;100191.50;5003221;28;20192;-72
2024/03/24 08:36:58;;;;;;;14.80;2.03;;;;;;;5.65;100.00;100238.06;5006010;28;20201;-72
2024/03/24 08:39:24;;;;;;;12.03;1.87;;;;;;;5.91;100.00;100279.41;5007799;28;20271;-73
2024/03/24 08:41:50;;;;;;;8.20;1.13;;;;;;;6.09;100.00;100279.06;5005890;28;20550;-73
2024/03/24 08:44:15;;;;;;;8.03;1.80;;;;;;;5.32;100.00;100156.94;4991665;28;20435;-72
2024/03/24 08:46:41;;;;;;;9.10;1.40;;;;;;;5.63;100.00;100189.53;4987210;28;20895;-72
2024/03/24 08:49:06;;;;;;;9.20;1.47;;;;;;;6.03;100.00;100232.72;5003355;28;20212;-71
2024/03/24 08:51:32;;;;;;;5.50;1.30;;;;;;;5.64;100.00;100177.91;5000941;28;20224;-74
2024/03/24 08:53:57;;;;;;;8.57;1.50;;;;;;;5.96;100.00;100207.84;5005104;28;20185;-71
2024/03/24 08:56:23;;;;;;;11.70;1.67;;;;;;;6.45;100.00;100284.50;4995900;28;20616;-71
2024/03/24 08:58:48;;;;;;;12.40;1.97;;;;;;;6.00;100.00;100238.41;4999171;28;20185;-71
2024/03/24 09:01:13;;;;;;;7.93;1.57;;;;;;;5.58;100.00;100156.50;4998734;28;20236;-71
2024/03/24 09:03:39;;;;;;;11.40;1.70;;;;;;;6.17;100.00;100286.97;5003503;28;20539;-72
2024/03/24 09:06:06;;;;;;;7.80;1.13;;;;;;;5.46;100.00;100188.03;4984332;28;20272;-75
2024/03/24 09:08:32;;;;;;;8.33;2.50;;;;;;;5.07;100.00;100106.66;5002085;28;20212;-71
2024/03/24 09:10:57;;;;;;;7.37;1.37;;;;;;;5.76;100.00;100228.00;5001605;28;20432;-71
2024/03/24 09:13:23;;;;;;;6.00;1.43;;;;;;;5.62;100.00;100230.47;4998858;28;20268;-71
2024/03/24 09:15:48;;;;;;;6.27;1.10;;;;;;;5.71;100.00;100180.66;5006391;28;20191;-71
2024/03/24 09:18:14;;;;;;;7.47;1.20;;;;;;;5.72;100.00;100210.75;5006209;28;20178;-71
2024/03/24 09:20:39;;;;;;;6.47;1.07;;;;;;;5.52;100.00;100142.09;5002205;28;20211;-71
2024/03/24 09:23:04;;;;;;;7.53;1.10;;;;;;;5.89;100.00;100228.19;5004400;28;20251;-72
2024/03/24 09:25:33;;;;;;;9.63;1.10;;;;;;;5.20;100.00;100101.53;5008347;28;20609;-72
2024/03/24 09:27:59;;;;;;;6.70;1.30;;;;;;;6.02;100.00;100223.09;4985927;28;20291;-72
2024/03/24 09:30:25;;;;;;;11.23;1.47;;;;;;;5.84;100.00;100217.25;5006769;28;20436;-73
2024/03/24 09:32:53;;;;;;;12.10;1.60;;;;;;;5.62;100.00;100187.88;5002119;28;20204;-73
2024/03/24 09:35:18;;;;;;;6.33;1.13;;;;;;;5.65;100.00;100152.94;5008192;28;20458;-73
2024/03/24 09:37:44;;;;;;;6.87;1.53;;;;;;;5.73;100.00;100183.09;5007986;28;20522;-74
2024/03/24 09:40:10;;;;;;;7.27;1.50;;;;;;;5.85;100.00;100187.00;4984230;28;20276;-73
2024/03/24 09:42:36;;;;;;;9.13;1.63;;;;;;;5.51;100.00;100118.34;5013111;28;20569;-73
2024/03/24 09:45:05;;;;;;;9.53;1.80;;;;;;;6.02;100.00;100206.28;4991744;28;20493;-72
2024/03/24 09:47:33;;;;;;;8.60;1.70;;;;;;;5.61;100.00;100106.44;5009406;28;20288;-73
2024/03/24 09:49:59;;;;;;;7.70;1.43;;;;;;;5.64;100.00;100084.78;5009043;28;20909;-73
2024/03/24 09:52:29;;;;;;;8.63;2.00;;;;;;;6.29;100.00;100178.97;5006310;28;20460;-73
2024/03/24 09:54:56;;;;;;;9.10;1.90;;;;;;;6.18;100.00;100122.69;4991420;28;20786;-73
2024/03/24 09:57:25;;;;;;;8.10;2.10;;;;;;;6.19;100.00;100122.53;5008794;28;21276;-73
2024/03/24 09:59:53;;;;;;;8.73;1.80;;;;;;;6.71;100.00;100125.91;5008472;28;20423;-73
2024/03/24 10:02:19;;;;;;;8.63;1.87;;;;;;;7.20;100.00;100170.44;5008014;28;20452;-73
2024/03/24 10:04:45;;;;;;;9.57;2.07;;;;;;;7.36;100.00;100182.66;5010488;28;20502;-74
2024/03/24 10:07:11;;;;;;;5.10;1.30;;;;;;;7.36;100.00;100177.34;4983097;28;20187;-70
2024/03/24 10:09:36;;;;;;;6.13;1.30;;;;;;;7.18;100.00;100159.16;4991967;28;20510;-70
2024/03/24 10:12:13;;;;;;;7.43;1.33;;;;;;;6.69;100.00;100118.13;5005367;28;20216;-71
2024/03/24 10:14:38;;;;;;;8.63;1.23;;;;;;;6.92;100.00;100247.72;5013316;28;20187;-71
2024/03/24 10:17:18;;;;;;;7.00;1.40;;;;;;;6.48;100.00;100214.00;5006750;28;20444;-71
2024/03/24 10:19:48;;;;;;;5.20;1.20;;;;;;;6.35;100.00;100286.59;5012281;28;20591;-74
2024/03/24 10:22:13;;;;;;;7.70;1.70;;;;;;;6.20;100.00;100281.28;5006143;28;20463;-75
2024/03/24 10:24:43;;;;;;;7.37;1.30;;;;;;;6.20;100.00;100294.59;5010001;28;20438;-75
2024/03/24 10:27:09;;;;;;;7.45;1.40;;;;;;;5.70;100.00;100239.34;5008036;28;20177;-75
2024/03/24 10:29:34;;;;;;;6.90;1.30;;;;;;;5.95;100.00;100206.19;5007571;28;20594;-75
2024/03/24 10:32:00;;;;;;;5.30;1.40;;;;;;;5.21;100.00;100081.13;5006662;28;20857;-75
2024/03/24 10:34:31;;;;;;;6.70;1.30;;;;;;;5.94;100.00;100174.44;4985117;28;20193;-76
2024/03/24 10:36:57;;;;;;;6.65;1.80;;;;;;;5.80;100.00;100152.09;5011150;28;20196;-77
2024/03/24 10:39:22;;;;;;;5.20;1.20;;;;;;;5.19;100.00;100045.91;5007390;28;20425;-76
2024/03/24 10:41:51;;;;;;;8.77;1.40;;;;;;;5.76;100.00;100105.59;5006228;28;20220;-76
2024/03/24 10:44:17;;;;;;;11.13;1.80;;;;;;;5.14;100.00;100009.22;5006393;28;20260;-77
2024/03/24 10:46:42;;;;;;;6.10;1.30;;;;;;;6.03;100.00;100110.25;4985686;28;20969;-76
2024/03/24 10:49:12;;;;;;;5.90;1.40;;;;;;;5.98;100.00;100082.53;4980163;28;20220;-76
2024/03/24 10:51:39;;;;;;;9.93;1.83;;;;;;;6.31;100.00;100114.88;5010384;28;20282;-74
2024/03/24 10:54:08;;;;;;;6.70;1.70;;;;;;;5.82;100.00;100028.50;5007434;28;20463;-73
2024/03/24 10:56:34;;;;;;;9.90;2.20;;;;;;;6.03;100.00;100030.38;4981347;28;20941;-73
2024/03/24 10:59:01;;;;;;;7.87;1.87;;;;;;;6.80;100.00;100103.47;5007740;28;20440;-73
2024/03/24 11:01:27;;;;;;;7.83;1.63;;;;;;;6.43;100.00;100019.28;4980272;28;20228;-73
2024/03/24 11:03:56;;;;;;;9.67;2.40;;;;;;;6.75;100.00;100092.53;5007662;28;20435;-73
2024/03/24 11:06:24;;;;;;;11.77;2.30;;;;;;;6.81;100.00;100120.28;4996532;28;20520;-73
2024/03/24 11:08:49;;;;;;;12.53;2.20;;;;;;;6.88;100.00;100195.78;5008133;28;20861;-73
2024/03/24 11:11:15;;;;;;;11.53;1.63;;;;;;;6.26;100.00;100168.69;5003559;28;21325;-74
2024/03/24 11:13:41;;;;;;;6.50;1.63;;;;;;;5.80;100.00;100133.47;5007731;28;20188;-77
2024/03/24 11:16:07;;;;;;;8.00;1.50;;;;;;;5.47;100.00;100069.16;4987893;28;20193;-78
2024/03/24 11:18:32;;;;;;;8.37;1.83;;;;;;;5.73;100.00;100122.75;5016373;28;20583;-78
2024/03/24 11:21:01;;;;;;;10.75;3.40;;;;;;;6.16;100.00;100157.50;5010422;28;20264;-76
2024/03/24 11:23:33;;;;;;;16.17;2.90;;;;;;;6.42;100.00;100148.16;5007261;28;20781;-76
2024/03/24 11:26:11;;;;;;;13.80;3.03;;;;;;;6.54;100.00;100128.84;4984811;28;20449;-75
2024/03/24 11:28:49;;;;;;;15.93;2.90;;;;;;;6.93;100.00;100114.22;4992445;28;20462;-76
2024/03/24 11:31:20;;;;;;;18.60;3.80;;;;;;;7.37;100.00;100137.09;5009659;28;20932;-75
2024/03/24 11:34:05;;;;;;;18.77;3.57;;;;;;;7.65;100.00;100129.06;5012055;28;20467;-75
2024/03/24 11:36:32;;;;;;;19.03;3.90;;;;;;;6.81;100.00;99995.81;4989963;28;20420;-74
2024/03/24 11:38:59;;;;;;;18.20;3.50;;;;;;;7.87;100.00;100121.81;4984449;28;20936;-75
2024/03/24 11:41:24;;;;;;;17.00;3.73;;;;;;;7.28;100.00;100034.25;4984059;28;20495;-75
2024/03/24 11:43:56;;;;;;;16.90;4.20;;;;;;;7.16;100.00;100011.81;5003128;28;20463;-75
2024/03/24 11:46:21;;;;;;;15.63;3.70;;;;;;;7.00;100.00;99963.13;4986489;28;20199;-74